Time;durP1;ratioP1;P1;durP2;ratioP2;P2;SDS_P1;SDS_P2;PMS_P1;PMS_P2;Temp;Humidity;BMP_temperature;BMP_pressure;BME280_temperature;BME280_humidity;BME280_pressure;Samples;Min_cycle;Max_cycle;Signal;HPM_P1;HPM_P2
2023/07/11 00:04:47;;;;;;;2.05;1.02;;;;;;;24.46;41.38;101569.34;16118337;19;131111;-54
2023/07/11 00:10:12;;;;;;;1.25;0.85;;;;;;;24.45;41.49;101568.53;16109698;19;130693;-56
2023/07/11 00:15:34;;;;;;;1.33;0.90;;;;;;;24.43;41.30;101560.38;16113594;19;130138;-53
2023/07/11 00:20:57;;;;;;;2.08;0.93;;;;;;;24.44;41.60;101561.25;16114018;19;132479;-56
2023/07/11 00:26:19;;;;;;;4.07;1.60;;;;;;;24.43;41.49;101568.78;16119971;19;129939;-57
2023/07/11 00:31:41;;;;;;;1.35;0.90;;;;;;;24.43;41.51;101571.56;16115310;19;130125;-55
2023/07/11 00:37:03;;;;;;;3.25;1.00;;;;;;;24.42;41.52;101561.53;16112048;19;130694;-54
2023/07/11 00:42:25;;;;;;;1.55;0.77;;;;;;;24.41;41.58;101554.25;16111139;19;129779;-57
2023/07/11 00:47:47;;;;;;;2.33;1.02;;;;;;;24.41;41.38;101550.59;16109225;19;130391;-56
2023/07/11 00:53:10;;;;;;;2.97;1.05;;;;;;;24.40;41.58;101549.75;16115392;19;129345;-56
2023/07/11 00:58:35;;;;;;;1.98;1.00;;;;;;;24.41;41.74;101550.59;16115873;19;129371;-56
2023/07/11 01:03:58;;;;;;;3.70;0.95;;;;;;;24.39;41.55;101544.41;16111252;19;130733;-54
2023/07/11 01:09:20;;;;;;;2.53;0.95;;;;;;;24.38;41.66;101546.38;16101671;19;131969;-55
2023/07/11 01:14:45;;;;;;;2.35;1.00;;;;;;;24.38;41.73;101535.22;16106568;19;130353;-57
2023/07/11 01:20:09;;;;;;;;;;;;;;;24.35;41.64;101537.72;16108460;19;129364;-56
2023/07/11 01:25:32;;;;;;;1.83;1.02;;;;;;;24.37;42.03;101524.31;16104757;19;129934;-56
2023/07/11 01:30:54;;;;;;;1.83;0.93;;;;;;;24.35;41.89;101523.72;16108537;19;130143;-56
2023/07/11 01:36:16;;;;;;;1.60;1.00;;;;;;;24.35;41.75;101512.53;16109749;19;130264;-55
2023/07/11 01:41:38;;;;;;;1.98;0.90;;;;;;;24.34;41.70;101505.25;16105818;19;130067;-54
2023/07/11 01:47:02;;;;;;;1.13;0.88;;;;;;;24.34;41.89;101496.88;16105070;19;130998;-56
2023/07/11 01:52:24;;;;;;;1.20;1.00;;;;;;;24.34;41.79;101491.28;16107085;19;130089;-57
2023/07/11 01:57:46;;;;;;;1.50;0.80;;;;;;;24.33;42.15;101492.38;16110743;19;129520;-55
2023/07/11 02:03:07;;;;;;;3.28;1.05;;;;;;;24.33;41.82;101486.81;16108163;19;129004;-55
2023/07/11 02:08:30;;;;;;;1.50;0.95;;;;;;;24.33;41.78;101479.22;16110219;19;132190;-57
2023/07/11 02:13:52;;;;;;;1.55;0.90;;;;;;;24.32;41.91;101485.13;16105429;19;130615;-57
2023/07/11 02:19:16;;;;;;;1.45;0.93;;;;;;;24.32;41.85;101483.16;16112833;19;134691;-55
2023/07/11 02:24:39;;;;;;;1.02;0.80;;;;;;;24.32;41.96;101468.34;16107840;19;129659;-56
2023/07/11 02:30:02;;;;;;;1.95;0.95;;;;;;;24.32;41.59;101463.56;16109297;19;129988;-55
2023/07/11 02:35:24;;;;;;;1.02;0.70;;;;;;;24.31;41.94;101455.47;16107870;19;130914;-55
2023/07/11 02:40:46;;;;;;;1.45;0.80;;;;;;;24.30;42.17;101451.00;16109188;19;130428;-56
2023/07/11 02:46:08;;;;;;;2.33;0.90;;;;;;;24.30;42.04;101446.25;16107255;19;130530;-55
2023/07/11 02:51:30;;;;;;;0.98;0.70;;;;;;;24.30;41.75;101442.59;16106959;19;130327;-56
2023/07/11 02:56:52;;;;;;;1.42;0.98;;;;;;;24.28;41.64;101434.50;16110463;19;129688;-57
2023/07/11 03:02:14;;;;;;;1.33;0.70;;;;;;;24.27;41.82;101428.03;16098891;19;130579;-55
2023/07/11 03:07:36;;;;;;;1.67;0.82;;;;;;;24.27;41.94;101424.41;16106941;19;131041;-57
2023/07/11 03:12:58;;;;;;;2.22;0.88;;;;;;;24.26;41.93;101422.75;16120743;19;131791;-56
2023/07/11 03:18:20;;;;;;;1.10;0.80;;;;;;;24.25;42.01;101416.28;16118518;19;129914;-56
2023/07/11 03:23:42;;;;;;;1.27;0.82;;;;;;;24.24;42.10;101417.44;16114759;19;130194;-54
2023/07/11 03:29:04;;;;;;;1.02;0.70;;;;;;;24.23;42.09;101404.53;16118482;19;131332;-56
2023/07/11 03:34:26;;;;;;;1.77;1.13;;;;;;;24.22;42.03;101402.00;16120392;19;131707;-54
2023/07/11 03:39:47;;;;;;;0.95;0.50;;;;;;;24.22;42.21;101386.06;16115385;19;131454;-57
2023/07/11 03:45:09;;;;;;;0.88;0.75;;;;;;;24.20;42.02;101393.88;16115563;19;131017;-57
2023/07/11 03:50:31;;;;;;;0.98;0.70;;;;;;;24.20;42.09;101382.72;16119398;19;129304;-55
2023/07/11 03:55:53;;;;;;;1.52;0.63;;;;;;;24.20;42.25;101373.47;16118495;19;132569;-54
2023/07/11 04:01:16;;;;;;;2.40;0.70;;;;;;;24.19;42.23;101369.84;16119376;19;131687;-57
2023/07/11 04:06:38;;;;;;;0.82;0.65;;;;;;;24.19;41.86;101357.81;16116171;19;129089;-55
2023/07/11 04:12:00;;;;;;;0.80;0.60;;;;;;;24.17;42.27;101360.88;16114879;19;129638;-53
2023/07/11 04:17:22;;;;;;;1.00;0.60;;;;;;;24.16;42.18;101359.19;16115760;19;130537;-55
2023/07/11 04:22:44;;;;;;;1.15;0.60;;;;;;;24.16;42.32;101356.41;16113081;19;130634;-55
2023/07/11 04:28:07;;;;;;;1.23;0.73;;;;;;;24.15;42.43;101357.50;16116355;19;129622;-55
2023/07/11 04:33:29;;;;;;;0.82;0.70;;;;;;;24.15;42.39;101359.47;16115411;19;134108;-55
2023/07/11 04:38:51;;;;;;;1.25;0.63;;;;;;;24.14;42.06;101355.84;16116324;19;130628;-57
2023/07/11 04:44:15;;;;;;;0.63;0.43;;;;;;;24.13;42.26;101348.56;16115142;19;130569;-55
2023/07/11 04:49:38;;;;;;;1.17;0.70;;;;;;;24.13;42.37;101354.16;16114681;19;130751;-56
2023/07/11 04:55:00;;;;;;;1.38;0.80;;;;;;;24.13;42.23;101354.16;16113368;19;129915;-55
2023/07/11 05:00:22;;;;;;;0.85;0.65;;;;;;;24.12;42.07;101344.94;16113255;19;129778;-55
2023/07/11 05:05:45;;;;;;;1.23;0.60;;;;;;;24.12;42.36;101347.72;16114672;19;130279;-56
2023/07/11 05:11:13;;;;;;;0.68;0.52;;;;;;;24.12;42.44;101341.31;16112929;19;129511;-54
2023/07/11 05:16:35;;;;;;;1.00;0.60;;;;;;;24.13;42.35;101337.38;16115261;19;130722;-55
2023/07/11 05:21:57;;;;;;;1.23;0.60;;;;;;;24.11;42.48;101329.28;16113052;19;129905;-56
2023/07/11 05:27:19;;;;;;;1.20;0.73;;;;;;;24.12;42.33;101325.38;16114204;19;129518;-56
2023/07/11 05:32:41;;;;;;;0.82;0.50;;;;;;;24.12;42.61;101316.16;16113384;19;130250;-54
2023/07/11 05:38:04;;;;;;;1.25;0.73;;;;;;;24.11;42.35;101318.09;16111920;19;129509;-55
2023/07/11 05:43:26;;;;;;;1.27;0.80;;;;;;;24.12;42.23;101318.97;16114572;19;129892;-56
2023/07/11 05:48:49;;;;;;;1.50;0.82;;;;;;;24.12;42.40;101324.53;16118571;19;129706;-58
2023/07/11 05:54:11;;;;;;;1.08;0.60;;;;;;;24.12;42.41;101313.38;16118556;19;130717;-55
2023/07/11 05:59:33;;;;;;;1.52;0.80;;;;;;;24.12;42.46;101304.97;16120368;19;129481;-56
2023/07/11 06:04:54;;;;;;;0.60;0.55;;;;;;;24.12;42.10;101307.78;16113335;19;129640;-57
2023/07/11 06:10:16;;;;;;;1.30;0.90;;;;;;;24.11;42.33;101297.72;16113672;19;130485;-55
2023/07/11 06:15:39;;;;;;;2.65;1.10;;;;;;;24.10;42.39;101298.81;16117112;19;129847;-56
2023/07/11 06:21:01;;;;;;;3.45;1.75;;;;;;;24.01;41.40;101297.66;16110887;19;130677;-58
2023/07/11 06:26:23;;;;;;;9.10;1.88;;;;;;;23.91;40.60;101293.72;16109308;19;130561;-58
2023/07/11 06:31:45;;;;;;;11.57;2.10;;;;;;;23.87;40.66;101294.53;16111487;19;129370;-58
2023/07/11 06:37:07;;;;;;;10.27;2.50;;;;;;;23.83;40.80;101291.44;16109337;19;129965;-59
2023/07/11 06:42:29;;;;;;;8.77;2.22;;;;;;;23.84;40.34;101287.56;16108606;19;130836;-54
2023/07/11 06:47:51;;;;;;;6.70;2.03;;;;;;;23.92;40.48;101287.00;16120944;19;131172;-52
2023/07/11 06:53:13;;;;;;;12.95;2.10;;;;;;;23.99;39.98;101283.97;16118987;19;130395;-51
2023/07/11 06:58:35;;;;;;;6.93;2.08;;;;;;;24.13;40.05;101275.88;16118341;19;131128;-51
2023/07/11 07:03:57;;;;;;;11.43;2.60;;;;;;;24.30;39.72;101274.84;16110557;19;131216;-52
2023/07/11 07:09:20;;;;;;;10.75;1.88;;;;;;;24.41;39.92;101270.94;16112549;19;129716;-47
2023/07/11 07:14:42;;;;;;;5.85;2.15;;;;;;;24.49;39.94;101273.22;16113821;19;129654;-49
2023/07/11 07:20:04;;;;;;;9.50;1.95;;;;;;;24.56;39.84;101268.16;16120238;19;131963;-51
2023/07/11 07:25:26;;;;;;;13.25;1.85;;;;;;;24.61;39.41;101272.91;16112600;19;131043;-49
2023/07/11 07:30:53;;;;;;;8.48;2.33;;;;;;;24.73;38.96;101264.25;16119409;19;129510;-52
2023/07/11 07:36:15;;;;;;;11.52;3.13;;;;;;;24.80;39.28;101262.00;16118236;19;131052;-54
2023/07/11 07:41:38;;;;;;;8.32;2.00;;;;;;;24.87;38.89;101256.94;16119814;19;130329;-50
2023/07/11 07:47:00;;;;;;;8.45;2.00;;;;;;;24.97;38.73;101256.13;16114783;19;129909;-52
2023/07/11 07:52:24;;;;;;;7.15;2.10;;;;;;;25.01;38.39;101250.81;16114880;19;129586;-52
2023/07/11 07:57:46;;;;;;;9.77;2.70;;;;;;;24.99;38.35;101245.50;16113935;19;130676;-63
2023/07/11 08:03:08;;;;;;;8.88;1.85;;;;;;;24.98;38.41;101246.63;16117153;19;129280;-52
2023/07/11 08:08:31;;;;;;;6.05;1.95;;;;;;;25.00;38.62;101249.13;16121509;19;129517;-51
2023/07/11 08:13:54;;;;;;;9.80;2.30;;;;;;;25.01;38.43;101242.41;16118301;19;130750;-52
2023/07/11 08:19:21;;;;;;;8.38;2.30;;;;;;;24.98;38.61;101252.22;16113676;19;130068;-51
2023/07/11 08:24:42;;;;;;;5.38;2.15;;;;;;;24.95;38.86;101251.97;16117696;19;130209;-54
2023/07/11 08:30:05;;;;;;;6.57;2.30;;;;;;;24.91;38.79;101253.63;16115695;19;129648;-47
2023/07/11 08:35:28;;;;;;;14.07;2.60;;;;;;;24.95;38.70;101240.75;16114243;19;130498;-54
2023/07/11 08:40:50;;;;;;;6.20;1.90;;;;;;;24.99;38.73;101233.47;16116602;19;130188;-57
2023/07/11 08:46:14;;;;;;;10.38;2.10;;;;;;;25.09;38.53;101229.81;16114569;19;129968;-48
2023/07/11 08:51:43;;;;;;;5.77;1.97;;;;;;;25.16;38.19;101211.59;16114692;19;130864;-54
2023/07/11 08:57:09;;;;;;;7.75;2.20;;;;;;;25.24;38.64;101220.53;16112162;19;130214;-51
2023/07/11 09:02:46;;;;;;;10.95;2.28;;;;;;;25.26;38.46;101207.94;16110009;19;129639;-49
2023/07/11 09:08:14;;;;;;;7.38;1.90;;;;;;;25.28;38.37;101205.69;16108163;19;129376;-50
2023/07/11 09:13:51;;;;;;;5.22;1.83;;;;;;;25.29;38.52;101200.91;16111194;19;130326;-45
2023/07/11 09:19:39;;;;;;;5.97;1.85;;;;;;;25.29;38.77;101198.94;16109860;19;132578;-51
2023/07/11 09:25:18;;;;;;;7.47;2.40;;;;;;;25.30;38.57;101191.38;16113692;19;130122;-53
2023/07/11 09:30:46;;;;;;;10.52;2.45;;;;;;;25.30;38.82;101185.78;16113812;19;130317;-54
2023/07/11 09:36:37;;;;;;;9.60;2.08;;;;;;;25.32;39.04;101175.16;16102860;19;130863;-52
2023/07/11 09:42:29;;;;;;;20.40;2.47;;;;;;;25.34;39.21;101181.31;16112017;19;129765;-54
2023/07/11 09:47:57;;;;;;;7.25;1.80;;;;;;;25.31;38.93;101177.09;16113954;19;129692;-53
2023/07/11 09:53:21;;;;;;;6.57;2.00;;;;;;;25.33;39.27;101168.41;16112614;19;130076;-51
2023/07/11 09:58:51;;;;;;;6.07;1.80;;;;;;;25.36;39.05;101170.63;16106270;19;130328;-52
2023/07/11 10:04:20;;;;;;;5.03;1.58;;;;;;;25.38;39.20;101159.97;16105253;19;129930;-47
2023/07/11 10:09:45;;;;;;;8.43;2.08;;;;;;;25.38;39.51;101148.78;16079871;19;131927;-50
2023/07/11 10:15:14;;;;;;;5.22;1.60;;;;;;;25.40;39.51;101154.94;16063699;19;131990;-49
2023/07/11 10:20:43;;;;;;;7.03;1.90;;;;;;;25.41;39.67;101148.22;16104032;19;130920;-48
2023/07/11 10:26:10;;;;;;;6.50;1.88;;;;;;;25.42;39.70;101144.28;16109965;19;129744;-48
2023/07/11 10:31:40;;;;;;;6.40;1.52;;;;;;;25.44;39.81;101133.63;16124741;19;130203;-49
2023/07/11 10:37:15;;;;;;;4.75;1.63;;;;;;;25.45;39.83;101121.31;16123857;19;130194;-52
2023/07/11 10:42:45;;;;;;;8.67;1.60;;;;;;;25.44;39.80;101129.97;16119894;19;130345;-52
2023/07/11 10:48:39;;;;;;;10.25;1.65;;;;;;;25.44;39.66;101124.38;16114754;19;131379;-53
2023/07/11 10:54:23;;;;;;;8.05;1.90;;;;;;;25.43;40.07;101117.97;16121129;19;130556;-47
2023/07/11 10:59:45;;;;;;;11.35;2.58;;;;;;;25.45;39.81;101098.91;16114305;19;131169;-52
2023/07/11 11:05:44;;;;;;;13.20;2.40;;;;;;;25.49;39.87;101094.38;16120201;19;129972;-49
2023/07/11 11:11:28;;;;;;;10.88;2.53;;;;;;;25.48;40.32;101087.09;16112313;19;131727;-50
2023/07/11 11:17:00;;;;;;;6.15;2.33;;;;;;;25.47;40.26;101079.84;16121173;19;129693;-49
2023/07/11 11:22:36;;;;;;;7.38;2.30;;;;;;;25.45;40.42;101084.91;16116988;19;129591;-52
2023/07/11 11:28:15;;;;;;;8.88;1.95;;;;;;;25.44;40.45;101068.38;16116268;19;130644;-49
2023/07/11 11:33:52;;;;;;;9.55;2.17;;;;;;;25.42;40.26;101071.47;16117887;19;129526;-51
2023/07/11 11:39:32;;;;;;;8.68;1.80;;;;;;;25.41;40.62;101055.78;16120812;19;134705;-51
2023/07/11 11:44:59;;;;;;;7.88;1.88;;;;;;;25.38;40.74;101056.34;16119836;19;130476;-51
2023/07/11 11:50:41;;;;;;;7.13;2.03;;;;;;;25.37;40.69;101039.84;16117469;19;130254;-51
2023/07/11 11:56:20;;;;;;;6.75;2.25;;;;;;;25.37;40.43;101043.47;16117650;19;130093;-52
2023/07/11 12:01:58;;;;;;;5.97;1.70;;;;;;;25.38;40.55;101042.34;16115552;19;130738;-51
2023/07/11 12:07:25;;;;;;;6.93;2.20;;;;;;;25.37;40.70;101029.47;16117665;19;130060;-50
2023/07/11 12:13:17;;;;;;;3.85;2.03;;;;;;;25.38;40.72;101019.94;16117445;19;130519;-50
2023/07/11 12:18:46;;;;;;;6.97;1.85;;;;;;;25.38;40.55;101036.75;16118497;19;130443;-54
2023/07/11 12:24:21;;;;;;;6.03;1.70;;;;;;;25.38;40.82;101022.75;16115907;19;129035;-52
2023/07/11 12:30:13;;;;;;;3.88;1.52;;;;;;;25.38;40.71;101013.53;16108117;19;129851;-55
2023/07/11 12:35:35;;;;;;;5.43;1.63;;;;;;;25.36;40.72;101008.19;16109855;19;129614;-48
2023/07/11 12:41:15;;;;;;;6.20;1.60;;;;;;;25.37;40.52;100995.88;16112638;19;131530;-52
2023/07/11 12:46:49;;;;;;;6.88;2.17;;;;;;;25.39;40.71;100999.22;16109021;19;129559;-50
2023/07/11 12:52:14;;;;;;;10.82;1.95;;;;;;;25.40;40.54;100995.31;16112442;19;130047;-49
2023/07/11 12:57:43;;;;;;;;;;;;;;;25.37;40.81;100987.47;16114359;19;129488;-52
2023/07/11 13:03:32;;;;;;;5.88;2.10;;;;;;;25.42;40.56;100979.03;16112597;19;130725;-50
2023/07/11 13:08:55;;;;;;;3.78;1.55;;;;;;;25.42;40.73;100981.00;16116530;19;134056;-51
2023/07/11 13:14:20;;;;;;;8.35;2.00;;;;;;;25.43;40.53;100969.53;16109756;19;131591;-48
2023/07/11 13:19:43;;;;;;;14.23;1.92;;;;;;;25.44;40.92;100962.78;16114423;19;130466;-54
2023/07/11 13:25:14;;;;;;;5.70;2.13;;;;;;;25.47;40.85;100953.81;16112994;19;131263;-53
2023/07/11 13:30:36;;;;;;;3.85;1.50;;;;;;;25.48;41.03;100957.44;16108544;19;129584;-53
2023/07/11 13:36:03;;;;;;;4.68;1.55;;;;;;;25.50;40.99;100946.78;16111708;19;130464;-49
2023/07/11 13:41:32;;;;;;;4.10;1.63;;;;;;;25.49;40.79;100943.13;16111411;19;131617;-51
2023/07/11 13:46:55;;;;;;;5.07;1.50;;;;;;;25.52;41.15;100943.66;16111981;19;132101;-52
2023/07/11 13:52:25;;;;;;;4.53;1.60;;;;;;;25.53;40.89;100935.03;16108540;19;130905;-50
2023/07/11 13:57:47;;;;;;;3.58;1.35;;;;;;;25.55;41.10;100940.31;16112292;19;131265;-51
2023/07/11 14:03:18;;;;;;;5.57;1.42;;;;;;;25.57;40.98;100938.88;16114227;19;130191;-51
2023/07/11 14:08:45;;;;;;;3.25;1.40;;;;;;;25.57;40.93;100932.47;16108683;19;147003;-51
2023/07/11 14:14:13;;;;;;;5.10;1.58;;;;;;;25.58;41.11;100936.94;16107605;19;130018;-49
2023/07/11 14:19:53;;;;;;;3.65;1.30;;;;;;;25.55;41.10;100929.13;16111740;19;129352;-54
2023/07/11 14:25:19;;;;;;;5.57;1.35;;;;;;;25.54;41.13;100921.84;16103530;19;129807;-50
2023/07/11 14:30:42;;;;;;;6.18;1.50;;;;;;;25.52;41.18;100921.25;16098657;19;130588;-48
2023/07/11 14:36:04;;;;;;;3.33;1.30;;;;;;;25.50;41.09;100908.38;16107322;19;130127;-49
2023/07/11 14:41:26;;;;;;;3.35;1.30;;;;;;;25.53;41.10;100903.38;16101935;19;130636;-48
2023/07/11 14:47:08;;;;;;;5.43;1.48;;;;;;;25.61;41.00;100920.38;16106398;19;130406;-53
2023/07/11 14:52:31;;;;;;;3.92;1.65;;;;;;;25.65;41.13;100906.59;16107012;19;129462;-48
2023/07/11 14:57:54;;;;;;;5.20;1.40;;;;;;;25.66;41.12;100913.88;16103328;19;129665;-49
2023/07/11 15:03:24;;;;;;;7.28;1.88;;;;;;;25.67;40.47;100903.50;16100686;19;132221;-47
2023/07/11 15:09:08;;;;;;;7.55;1.67;;;;;;;25.67;40.84;100900.69;16121740;19;131377;-52
2023/07/11 15:14:50;;;;;;;8.10;2.05;;;;;;;25.69;40.82;100890.88;16119628;19;130679;-47
2023/07/11 15:20:18;;;;;;;4.60;2.35;;;;;;;25.70;40.94;100884.16;16118954;19;130727;-50
2023/07/11 15:25:42;;;;;;;8.23;2.42;;;;;;;25.74;41.29;100879.59;16112288;19;130226;-49
2023/07/11 15:31:08;;;;;;;8.77;2.60;;;;;;;25.78;40.91;100871.47;16119434;19;129665;-48
2023/07/11 15:36:30;;;;;;;10.02;2.85;;;;;;;25.80;41.28;100850.41;16115703;19;132400;-47
2023/07/11 15:41:54;;;;;;;9.32;2.80;;;;;;;25.75;41.04;100855.25;16118209;19;131254;-50
2023/07/11 15:47:16;;;;;;;3.28;2.20;;;;;;;25.71;41.41;100841.00;16103382;19;131238;-49
2023/07/11 15:52:38;;;;;;;5.35;2.35;;;;;;;25.67;41.20;100839.06;16114608;19;131338;-49
2023/07/11 15:58:00;;;;;;;5.63;2.33;;;;;;;25.64;41.21;100834.91;16115500;19;130041;-47
2023/07/11 16:03:24;;;;;;;6.63;2.50;;;;;;;25.61;41.44;100830.72;16115794;19;129958;-48
2023/07/11 16:08:46;;;;;;;5.50;2.50;;;;;;;25.59;41.24;100829.38;16114006;19;129809;-51
2023/07/11 16:14:14;;;;;;;9.02;2.10;;;;;;;25.58;41.14;100819.28;16111366;19;130956;-50
2023/07/11 16:19:36;;;;;;;4.80;2.05;;;;;;;25.53;41.66;100813.72;16113353;19;129622;-49
2023/07/11 16:24:58;;;;;;;5.53;1.60;;;;;;;25.52;41.36;100803.63;16113844;19;130483;-49
2023/07/11 16:30:24;;;;;;;6.47;1.95;;;;;;;25.50;41.55;100793.53;16110418;19;129663;-47
2023/07/11 16:35:47;;;;;;;8.68;2.50;;;;;;;25.49;41.54;100791.06;16114453;19;130890;-48
2023/07/11 16:41:08;;;;;;;4.28;2.30;;;;;;;25.49;41.33;100777.06;16110753;19;129632;-47
2023/07/11 16:46:31;;;;;;;5.20;2.05;;;;;;;25.50;41.48;100775.94;16102958;19;130686;-48
2023/07/11 16:51:53;;;;;;;5.50;2.00;;;;;;;25.48;41.63;100779.00;16108571;19;129381;-47
2023/07/11 16:57:19;;;;;;;4.95;1.90;;;;;;;25.48;41.70;100770.59;16112323;19;132118;-48
2023/07/11 17:02:41;;;;;;;6.68;1.90;;;;;;;25.49;41.38;100763.06;16109407;19;131356;-50
2023/07/11 17:08:30;;;;;;;4.75;1.90;;;;;;;25.48;41.66;100769.78;16110009;19;130212;-48
2023/07/11 17:13:52;;;;;;;4.25;1.85;;;;;;;25.47;41.51;100768.97;16114848;19;129427;-51
2023/07/11 17:19:23;;;;;;;6.43;1.75;;;;;;;25.45;41.50;100768.41;16112960;19;129701;-45
2023/07/11 17:24:45;;;;;;;4.30;1.70;;;;;;;25.43;41.88;100758.63;16115149;19;131160;-47
2023/07/11 17:30:15;;;;;;;3.80;1.55;;;;;;;25.44;41.84;100763.94;16112026;19;129442;-50
2023/07/11 17:35:38;;;;;;;3.35;1.67;;;;;;;25.40;41.86;100757.25;16101695;19;130823;-45
2023/07/11 17:41:00;;;;;;;3.67;1.60;;;;;;;25.40;42.07;100732.06;16109439;19;131607;-51
2023/07/11 17:46:22;;;;;;;3.28;1.67;;;;;;;25.40;42.26;100732.06;16104321;19;130857;-51
2023/07/11 17:52:12;;;;;;;3.63;1.50;;;;;;;25.41;42.05;100722.53;16111134;19;131847;-47
2023/07/11 17:57:36;;;;;;;9.85;1.70;;;;;;;25.39;42.21;100707.16;16105327;19;135389;-47
2023/07/11 18:02:58;;;;;;;7.22;1.83;;;;;;;25.39;41.95;100707.97;16107340;19;130883;-48
2023/07/11 18:08:25;;;;;;;5.85;1.50;;;;;;;25.40;42.03;100708.84;16106853;19;129949;-48
2023/07/11 18:13:47;;;;;;;3.80;1.48;;;;;;;25.39;42.49;100713.59;16110080;19;130575;-43
2023/07/11 18:19:09;;;;;;;3.03;1.30;;;;;;;25.40;42.30;100728.44;16086260;19;130372;-47
2023/07/11 18:24:31;;;;;;;2.30;1.35;;;;;;;25.39;42.29;100712.75;16103773;19;129722;-46
2023/07/11 18:29:53;;;;;;;2.80;1.20;;;;;;;25.41;42.71;100705.72;16106188;19;130510;-46
2023/07/11 18:35:18;;;;;;;6.22;1.30;;;;;;;25.45;42.66;100715.22;16104374;19;129581;-50
2023/07/11 18:40:39;;;;;;;6.87;1.97;;;;;;;25.47;42.79;100721.34;16116288;19;129592;-47
2023/07/11 18:46:09;;;;;;;3.85;1.52;;;;;;;25.52;42.71;100712.06;16116928;19;129643;-52
2023/07/11 18:51:31;;;;;;;5.18;1.40;;;;;;;25.53;42.83;100712.91;16118475;19;131106;-49
2023/07/11 18:56:53;;;;;;;5.57;1.50;;;;;;;25.54;42.58;100709.78;16122605;19;130378;-47
2023/07/11 19:02:21;;;;;;;8.63;1.40;;;;;;;25.54;42.87;100711.78;16119735;19;130603;-55
2023/07/11 19:07:43;;;;;;;6.05;1.00;;;;;;;25.49;42.78;100729.44;16118763;19;130894;-53
2023/07/11 19:13:06;;;;;;;6.47;1.30;;;;;;;25.34;43.08;100741.66;16108457;19;130504;-55
2023/07/11 19:18:28;;;;;;;5.55;1.60;;;;;;;25.09;43.22;100760.41;16116859;19;130439;-57
2023/07/11 19:23:50;;;;;;;7.38;1.27;;;;;;;24.83;43.95;100779.31;16119744;19;130712;-54
2023/07/11 19:29:12;;;;;;;5.70;1.48;;;;;;;24.65;44.67;100778.94;16112913;19;130639;-54
2023/07/11 19:34:34;;;;;;;6.75;1.27;;;;;;;24.49;44.65;100797.78;16118587;19;133845;-53
2023/07/11 19:39:56;;;;;;;7.45;1.20;;;;;;;24.36;44.57;100820.78;16114790;19;132409;-52
2023/07/11 19:45:26;;;;;;;6.63;1.65;;;;;;;24.20;44.24;100829.22;16106231;19;129633;-49
2023/07/11 19:50:50;;;;;;;3.67;1.10;;;;;;;24.14;43.88;100852.72;16114755;19;129921;-55
2023/07/11 19:56:24;;;;;;;3.97;1.20;;;;;;;24.11;42.84;100858.91;16117245;19;129920;-53
2023/07/11 20:01:46;;;;;;;5.88;1.40;;;;;;;24.01;42.30;100875.69;16115101;19;130738;-48
2023/07/11 20:07:12;;;;;;;4.45;1.20;;;;;;;24.00;41.76;100890.78;16112538;19;129945;-48
2023/07/11 20:12:39;;;;;;;7.25;1.23;;;;;;;24.03;41.51;100867.84;16116795;19;130559;-51
2023/07/11 20:18:01;;;;;;;5.07;1.33;;;;;;;24.08;41.11;100865.06;16110363;19;130820;-53
2023/07/11 20:23:24;;;;;;;12.60;1.58;;;;;;;23.99;40.94;100863.97;16106141;19;130797;-56
2023/07/11 20:28:46;;;;;;;13.35;1.45;;;;;;;24.04;40.93;100863.94;16109932;19;131396;-51
2023/07/11 20:34:08;;;;;;;16.13;1.90;;;;;;;24.15;40.60;100864.75;16112161;19;130902;-49
2023/07/11 20:39:30;;;;;;;4.68;1.40;;;;;;;24.19;40.86;100840.66;16113907;19;130913;-51
2023/07/11 20:44:52;;;;;;;8.13;1.70;;;;;;;24.25;40.23;100867.53;16110373;19;130352;-49
2023/07/11 20:50:16;;;;;;;9.95;1.83;;;;;;;24.31;39.97;100874.75;16112151;19;131050;-50
2023/07/11 20:55:38;;;;;;;5.72;1.02;;;;;;;24.35;40.29;100889.00;16112268;19;130335;-49
2023/07/11 21:01:00;;;;;;;7.70;1.38;;;;;;;24.39;39.79;100881.72;16102429;19;130055;-50
2023/07/11 21:06:29;;;;;;;4.25;1.50;;;;;;;24.40;39.55;100881.44;16109298;19;130843;-48
2023/07/11 21:11:52;;;;;;;6.38;1.25;;;;;;;24.44;40.32;100884.50;16110582;19;130122;-50
2023/07/11 21:17:14;;;;;;;4.18;1.30;;;;;;;24.46;40.83;100876.66;16111756;19;129859;-52
2023/07/11 21:22:36;;;;;;;5.93;1.10;;;;;;;24.49;41.03;100880.81;16108090;19;130309;-52
2023/07/11 21:27:58;;;;;;;6.03;1.40;;;;;;;24.51;41.58;100862.63;16111060;19;130813;-51
2023/07/11 21:33:20;;;;;;;5.47;1.48;;;;;;;24.51;41.75;100851.44;16108829;19;130367;-51
2023/07/11 21:38:43;;;;;;;6.18;1.23;;;;;;;24.51;42.07;100857.03;16106698;19;131158;-49
2023/07/11 21:44:05;;;;;;;3.75;1.25;;;;;;;24.46;42.45;100837.50;16106625;19;130821;-51
2023/07/11 21:49:27;;;;;;;5.78;1.30;;;;;;;24.42;41.88;100842.84;16103920;19;132452;-51
2023/07/11 21:54:49;;;;;;;7.32;1.23;;;;;;;24.39;42.02;100842.56;16109867;19;135299;-51
2023/07/11 22:00:40;;;;;;;7.03;1.73;;;;;;;24.39;41.94;100834.16;16104648;19;131225;-49
2023/07/11 22:06:14;;;;;;;8.50;1.50;;;;;;;24.42;41.87;100836.41;16110004;19;130847;-49
2023/07/11 22:11:36;;;;;;;4.43;0.95;;;;;;;24.47;42.02;100828.00;16106659;19;130671;-46
2023/07/11 22:16:58;;;;;;;3.22;1.30;;;;;;;24.53;41.91;100815.63;16110090;19;130460;-50
2023/07/11 22:22:40;;;;;;;6.35;1.33;;;;;;;24.57;41.76;100825.13;16103502;19;131169;-48
2023/07/11 22:28:05;;;;;;;3.90;1.20;;;;;;;24.59;41.88;100838.81;16097972;19;130508;-45
2023/07/11 22:33:27;;;;;;;4.25;1.20;;;;;;;24.61;41.78;100839.38;16098268;19;130014;-51
2023/07/11 22:38:49;;;;;;;6.05;1.30;;;;;;;24.62;41.66;100852.22;16104343;19;131005;-49
2023/07/11 22:44:11;;;;;;;4.43;1.00;;;;;;;24.65;41.99;100862.00;16096825;19;130547;-50
2023/07/11 22:49:33;;;;;;;5.20;1.10;;;;;;;24.65;41.79;100862.00;16099323;19;131260;-49
2023/07/11 22:54:55;;;;;;;3.28;0.93;;;;;;;24.64;41.76;100869.56;16103491;19;129527;-48
2023/07/11 23:00:21;;;;;;;2.78;1.20;;;;;;;24.66;41.79;100860.88;16100845;19;130901;-52
2023/07/11 23:05:44;;;;;;;2.92;0.90;;;;;;;24.65;41.79;100848.00;16099642;19;131802;-48
2023/07/11 23:11:09;;;;;;;2.80;1.05;;;;;;;24.65;41.69;100843.25;16100872;19;130878;-50
2023/07/11 23:16:31;;;;;;;1.73;0.85;;;;;;;24.64;41.70;100835.13;16102859;19;129864;-47
2023/07/11 23:21:53;;;;;;;2.05;0.90;;;;;;;24.64;41.88;100826.75;16102230;19;131049;-50
2023/07/11 23:27:15;;;;;;;2.30;1.00;;;;;;;24.63;42.09;100834.31;16109772;19;131006;-50
2023/07/11 23:32:37;;;;;;;2.88;1.00;;;;;;;24.63;41.57;100845.50;16117764;19;131070;-46
2023/07/11 23:38:01;;;;;;;2.83;0.88;;;;;;;24.64;41.76;100835.13;16114372;19;130976;-46
2023/07/11 23:43:39;;;;;;;2.25;1.00;;;;;;;24.63;41.68;100836.25;16110967;19;131216;-46
2023/07/11 23:49:01;;;;;;;1.75;0.80;;;;;;;24.62;42.15;100862.56;16108812;19;130864;-46
2023/07/11 23:54:23;;;;;;;2.45;1.00;;;;;;;24.62;42.02;100882.13;16111362;19;130835;-50
2023/07/11 23:59:45;;;;;;;3.55;0.88;;;;;;;24.60;42.27;100895.59;16112427;19;131740;-45
